sensor_id;sensor_type;location;lat;lon;timestamp;P1;durP1;ratioP1;P2;durP2;ratioP2
30307;SDS011;17114;52.314;8.910;2023-09-19T00:00:44;4.43;;;3.67;;
30307;SDS011;17114;52.314;8.910;2023-09-19T00:03:13;10.68;;;4.47;;
30307;SDS011;17114;52.314;8.910;2023-09-19T00:05:41;10.52;;;4.13;;
30307;SDS011;17114;52.314;8.910;2023-09-19T00:08:12;7.13;;;4.25;;
30307;SDS011;17114;52.314;8.910;2023-09-19T00:10:40;6.97;;;4.13;;
30307;SDS011;17114;52.314;8.910;2023-09-19T00:13:08;9.50;;;4.32;;
30307;SDS011;17114;52.314;8.910;2023-09-19T00:15:41;7.35;;;4.32;;
30307;SDS011;17114;52.314;8.910;2023-09-19T00:18:15;13.32;;;4.53;;
30307;SDS011;17114;52.314;8.910;2023-09-19T00:20:45;9.07;;;4.60;;
30307;SDS011;17114;52.314;8.910;2023-09-19T00:23:16;9.30;;;4.03;;
30307;SDS011;17114;52.314;8.910;2023-09-19T00:25:43;8.40;;;4.28;;
30307;SDS011;17114;52.314;8.910;2023-09-19T00:28:11;12.05;;;4.05;;
30307;SDS011;17114;52.314;8.910;2023-09-19T00:30:39;7.07;;;3.67;;
30307;SDS011;17114;52.314;8.910;2023-09-19T00:33:08;11.00;;;4.00;;
30307;SDS011;17114;52.314;8.910;2023-09-19T00:35:37;10.30;;;4.32;;
30307;SDS011;17114;52.314;8.910;2023-09-19T00:38:04;11.73;;;4.25;;
30307;SDS011;17114;52.314;8.910;2023-09-19T00:40:33;10.57;;;4.45;;
30307;SDS011;17114;52.314;8.910;2023-09-19T00:43:00;8.38;;;4.00;;
30307;SDS011;17114;52.314;8.910;2023-09-19T00:45:27;11.38;;;4.53;;
30307;SDS011;17114;52.314;8.910;2023-09-19T00:47:55;9.55;;;4.80;;
30307;SDS011;17114;52.314;8.910;2023-09-19T00:50:24;8.82;;;4.50;;
30307;SDS011;17114;52.314;8.910;2023-09-19T00:52:53;11.60;;;4.53;;
30307;SDS011;17114;52.314;8.910;2023-09-19T00:55:24;9.45;;;4.18;;
30307;SDS011;17114;52.314;8.910;2023-09-19T00:57:52;13.07;;;4.57;;
30307;SDS011;17114;52.314;8.910;2023-09-19T01:00:21;9.68;;;4.18;;
30307;SDS011;17114;52.314;8.910;2023-09-19T01:02:50;11.02;;;4.28;;
30307;SDS011;17114;52.314;8.910;2023-09-19T01:05:17;13.90;;;4.20;;
30307;SDS011;17114;52.314;8.910;2023-09-19T01:07:44;11.75;;;5.10;;
30307;SDS011;17114;52.314;8.910;2023-09-19T01:10:12;10.60;;;4.05;;
30307;SDS011;17114;52.314;8.910;2023-09-19T01:12:48;11.43;;;4.00;;
30307;SDS011;17114;52.314;8.910;2023-09-19T01:18:03;13.90;;;4.30;;
30307;SDS011;17114;52.314;8.910;2023-09-19T01:32:06;16.33;;;4.03;;
30307;SDS011;17114;52.314;8.910;2023-09-19T01:34:46;8.23;;;3.53;;
30307;SDS011;17114;52.314;8.910;2023-09-19T01:37:20;15.52;;;3.80;;
30307;SDS011;17114;52.314;8.910;2023-09-19T01:39:52;10.43;;;4.40;;
30307;SDS011;17114;52.314;8.910;2023-09-19T01:45:13;13.30;;;3.63;;
30307;SDS011;17114;52.314;8.910;2023-09-19T01:47:56;9.15;;;3.42;;
30307;SDS011;17114;52.314;8.910;2023-09-19T01:50:44;16.23;;;4.15;;
30307;SDS011;17114;52.314;8.910;2023-09-19T01:56:23;19.10;;;4.22;;
30307;SDS011;17114;52.314;8.910;2023-09-19T01:58:57;12.90;;;4.10;;
30307;SDS011;17114;52.314;8.910;2023-09-19T02:01:30;11.38;;;4.22;;
30307;SDS011;17114;52.314;8.910;2023-09-19T02:03:58;13.13;;;4.25;;
30307;SDS011;17114;52.314;8.910;2023-09-19T02:06:25;11.40;;;3.65;;
30307;SDS011;17114;52.314;8.910;2023-09-19T02:08:53;13.98;;;3.90;;
30307;SDS011;17114;52.314;8.910;2023-09-19T02:11:21;16.38;;;4.20;;
30307;SDS011;17114;52.314;8.910;2023-09-19T02:13:48;13.05;;;4.22;;
30307;SDS011;17114;52.314;8.910;2023-09-19T02:16:19;12.38;;;4.15;;
30307;SDS011;17114;52.314;8.910;2023-09-19T02:18:48;13.20;;;3.97;;
30307;SDS011;17114;52.314;8.910;2023-09-19T02:21:16;12.75;;;3.67;;
30307;SDS011;17114;52.314;8.910;2023-09-19T02:23:44;9.45;;;3.08;;
30307;SDS011;17114;52.314;8.910;2023-09-19T02:26:13;17.60;;;4.63;;
30307;SDS011;17114;52.314;8.910;2023-09-19T02:28:40;8.68;;;3.35;;
30307;SDS011;17114;52.314;8.910;2023-09-19T02:31:07;9.65;;;3.53;;
30307;SDS011;17114;52.314;8.910;2023-09-19T02:33:34;14.02;;;4.25;;
30307;SDS011;17114;52.314;8.910;2023-09-19T02:36:02;16.77;;;4.55;;
30307;SDS011;17114;52.314;8.910;2023-09-19T02:38:30;7.65;;;3.75;;
30307;SDS011;17114;52.314;8.910;2023-09-19T02:40:57;17.17;;;4.07;;
30307;SDS011;17114;52.314;8.910;2023-09-19T02:43:24;12.02;;;3.40;;
30307;SDS011;17114;52.314;8.910;2023-09-19T02:45:51;13.38;;;3.67;;
30307;SDS011;17114;52.314;8.910;2023-09-19T02:48:22;13.60;;;4.38;;
30307;SDS011;17114;52.314;8.910;2023-09-19T02:50:51;12.85;;;3.92;;
30307;SDS011;17114;52.314;8.910;2023-09-19T02:53:18;17.65;;;4.20;;
30307;SDS011;17114;52.314;8.910;2023-09-19T02:55:48;11.85;;;3.75;;
30307;SDS011;17114;52.314;8.910;2023-09-19T02:58:15;14.55;;;3.97;;
30307;SDS011;17114;52.314;8.910;2023-09-19T03:00:45;10.55;;;4.13;;
30307;SDS011;17114;52.314;8.910;2023-09-19T03:03:16;14.07;;;3.92;;
30307;SDS011;17114;52.314;8.910;2023-09-19T03:05:44;15.02;;;4.63;;
30307;SDS011;17114;52.314;8.910;2023-09-19T03:08:14;12.93;;;3.13;;
30307;SDS011;17114;52.314;8.910;2023-09-19T03:10:47;14.25;;;3.67;;
30307;SDS011;17114;52.314;8.910;2023-09-19T03:13:14;15.20;;;4.40;;
30307;SDS011;17114;52.314;8.910;2023-09-19T03:15:42;14.57;;;3.65;;
30307;SDS011;17114;52.314;8.910;2023-09-19T03:18:15;16.83;;;3.75;;
30307;SDS011;17114;52.314;8.910;2023-09-19T03:20:42;16.15;;;4.03;;
30307;SDS011;17114;52.314;8.910;2023-09-19T03:23:10;16.58;;;3.85;;
30307;SDS011;17114;52.314;8.910;2023-09-19T03:25:39;19.50;;;4.05;;
30307;SDS011;17114;52.314;8.910;2023-09-19T03:28:06;10.48;;;3.92;;
30307;SDS011;17114;52.314;8.910;2023-09-19T03:30:33;20.25;;;4.57;;
30307;SDS011;17114;52.314;8.910;2023-09-19T03:33:00;15.15;;;3.85;;
30307;SDS011;17114;52.314;8.910;2023-09-19T03:35:27;13.68;;;3.88;;
30307;SDS011;17114;52.314;8.910;2023-09-19T03:37:54;20.05;;;4.25;;
30307;SDS011;17114;52.314;8.910;2023-09-19T03:40:22;12.57;;;3.47;;
30307;SDS011;17114;52.314;8.910;2023-09-19T03:42:49;11.32;;;4.10;;
30307;SDS011;17114;52.314;8.910;2023-09-19T03:45:16;17.63;;;4.45;;
30307;SDS011;17114;52.314;8.910;2023-09-19T03:47:44;15.52;;;3.80;;
30307;SDS011;17114;52.314;8.910;2023-09-19T03:50:14;15.57;;;3.88;;
30307;SDS011;17114;52.314;8.910;2023-09-19T03:52:44;13.80;;;4.00;;
30307;SDS011;17114;52.314;8.910;2023-09-19T03:55:11;14.07;;;4.15;;
30307;SDS011;17114;52.314;8.910;2023-09-19T03:57:38;15.65;;;3.92;;
30307;SDS011;17114;52.314;8.910;2023-09-19T04:00:06;14.27;;;3.92;;
30307;SDS011;17114;52.314;8.910;2023-09-19T04:02:38;20.90;;;5.03;;
30307;SDS011;17114;52.314;8.910;2023-09-19T04:05:06;11.05;;;3.72;;
30307;SDS011;17114;52.314;8.910;2023-09-19T04:07:33;21.42;;;4.28;;
30307;SDS011;17114;52.314;8.910;2023-09-19T04:10:01;14.73;;;4.70;;
30307;SDS011;17114;52.314;8.910;2023-09-19T04:12:28;15.65;;;4.30;;
30307;SDS011;17114;52.314;8.910;2023-09-19T04:14:55;18.50;;;4.05;;
30307;SDS011;17114;52.314;8.910;2023-09-19T04:17:22;14.65;;;4.80;;
30307;SDS011;17114;52.314;8.910;2023-09-19T04:19:50;20.42;;;4.93;;
30307;SDS011;17114;52.314;8.910;2023-09-19T04:22:17;16.73;;;4.85;;
30307;SDS011;17114;52.314;8.910;2023-09-19T04:24:44;18.83;;;4.43;;
30307;SDS011;17114;52.314;8.910;2023-09-19T04:27:11;16.70;;;3.85;;
30307;SDS011;17114;52.314;8.910;2023-09-19T04:29:41;16.73;;;4.65;;
30307;SDS011;17114;52.314;8.910;2023-09-19T04:32:08;18.55;;;4.75;;
30307;SDS011;17114;52.314;8.910;2023-09-19T04:34:36;17.02;;;4.35;;
30307;SDS011;17114;52.314;8.910;2023-09-19T04:37:06;14.98;;;3.90;;
30307;SDS011;17114;52.314;8.910;2023-09-19T04:39:33;15.50;;;4.20;;
30307;SDS011;17114;52.314;8.910;2023-09-19T04:42:00;21.30;;;4.25;;
30307;SDS011;17114;52.314;8.910;2023-09-19T04:44:27;22.05;;;3.97;;
30307;SDS011;17114;52.314;8.910;2023-09-19T04:46:54;20.20;;;4.47;;
30307;SDS011;17114;52.314;8.910;2023-09-19T04:49:21;14.70;;;3.75;;
30307;SDS011;17114;52.314;8.910;2023-09-19T04:51:48;13.63;;;3.50;;
30307;SDS011;17114;52.314;8.910;2023-09-19T04:54:15;8.95;;;3.60;;
30307;SDS011;17114;52.314;8.910;2023-09-19T04:56:42;18.30;;;3.83;;
30307;SDS011;17114;52.314;8.910;2023-09-19T04:59:09;19.27;;;3.97;;
30307;SDS011;17114;52.314;8.910;2023-09-19T05:01:37;20.77;;;4.10;;
30307;SDS011;17114;52.314;8.910;2023-09-19T05:04:04;16.13;;;4.07;;
30307;SDS011;17114;52.314;8.910;2023-09-19T05:06:31;18.77;;;3.63;;
30307;SDS011;17114;52.314;8.910;2023-09-19T05:09:01;16.23;;;3.75;;
30307;SDS011;17114;52.314;8.910;2023-09-19T05:11:31;12.35;;;3.88;;
30307;SDS011;17114;52.314;8.910;2023-09-19T05:13:59;16.75;;;3.90;;
30307;SDS011;17114;52.314;8.910;2023-09-19T05:16:30;16.35;;;3.80;;
30307;SDS011;17114;52.314;8.910;2023-09-19T05:19:00;16.15;;;4.10;;
30307;SDS011;17114;52.314;8.910;2023-09-19T05:21:28;16.90;;;4.03;;
30307;SDS011;17114;52.314;8.910;2023-09-19T05:23:57;18.40;;;4.53;;
30307;SDS011;17114;52.314;8.910;2023-09-19T05:26:24;18.73;;;4.65;;
30307;SDS011;17114;52.314;8.910;2023-09-19T05:28:51;18.67;;;4.20;;
30307;SDS011;17114;52.314;8.910;2023-09-19T05:31:19;15.77;;;4.03;;
30307;SDS011;17114;52.314;8.910;2023-09-19T05:33:47;9.77;;;3.42;;
30307;SDS011;17114;52.314;8.910;2023-09-19T05:36:14;17.30;;;4.75;;
30307;SDS011;17114;52.314;8.910;2023-09-19T05:38:43;17.17;;;4.72;;
30307;SDS011;17114;52.314;8.910;2023-09-19T05:41:11;12.32;;;4.30;;
30307;SDS011;17114;52.314;8.910;2023-09-19T05:43:40;16.33;;;3.88;;
30307;SDS011;17114;52.314;8.910;2023-09-19T05:46:08;18.23;;;4.45;;
30307;SDS011;17114;52.314;8.910;2023-09-19T05:48:35;16.02;;;3.85;;
30307;SDS011;17114;52.314;8.910;2023-09-19T05:51:02;14.27;;;3.65;;
30307;SDS011;17114;52.314;8.910;2023-09-19T05:53:29;15.25;;;3.85;;
30307;SDS011;17114;52.314;8.910;2023-09-19T05:55:56;19.80;;;3.50;;
30307;SDS011;17114;52.314;8.910;2023-09-19T05:58:23;16.25;;;3.65;;
30307;SDS011;17114;52.314;8.910;2023-09-19T06:00:49;15.85;;;4.00;;
30307;SDS011;17114;52.314;8.910;2023-09-19T06:03:16;20.95;;;3.63;;
30307;SDS011;17114;52.314;8.910;2023-09-19T06:05:45;15.63;;;3.58;;
30307;SDS011;17114;52.314;8.910;2023-09-19T06:08:16;15.68;;;3.60;;
30307;SDS011;17114;52.314;8.910;2023-09-19T06:10:42;17.83;;;3.47;;
30307;SDS011;17114;52.314;8.910;2023-09-19T06:13:09;15.55;;;3.33;;
30307;SDS011;17114;52.314;8.910;2023-09-19T06:15:36;17.23;;;3.47;;
30307;SDS011;17114;52.314;8.910;2023-09-19T06:18:03;13.88;;;3.17;;
30307;SDS011;17114;52.314;8.910;2023-09-19T06:20:31;11.48;;;3.58;;
30307;SDS011;17114;52.314;8.910;2023-09-19T06:22:59;15.57;;;3.28;;
30307;SDS011;17114;52.314;8.910;2023-09-19T06:25:28;16.52;;;3.15;;
30307;SDS011;17114;52.314;8.910;2023-09-19T06:27:55;12.25;;;3.33;;
30307;SDS011;17114;52.314;8.910;2023-09-19T06:30:23;11.95;;;3.47;;
30307;SDS011;17114;52.314;8.910;2023-09-19T06:32:55;17.88;;;3.53;;
30307;SDS011;17114;52.314;8.910;2023-09-19T06:35:23;17.27;;;4.32;;
30307;SDS011;17114;52.314;8.910;2023-09-19T06:37:52;16.83;;;3.08;;
30307;SDS011;17114;52.314;8.910;2023-09-19T06:40:19;13.20;;;2.88;;
30307;SDS011;17114;52.314;8.910;2023-09-19T06:42:49;15.48;;;3.25;;
30307;SDS011;17114;52.314;8.910;2023-09-19T06:45:17;11.10;;;2.92;;
30307;SDS011;17114;52.314;8.910;2023-09-19T06:47:45;11.98;;;2.78;;
30307;SDS011;17114;52.314;8.910;2023-09-19T06:50:20;13.77;;;2.75;;
30307;SDS011;17114;52.314;8.910;2023-09-19T06:52:50;14.23;;;3.42;;
30307;SDS011;17114;52.314;8.910;2023-09-19T06:55:18;15.75;;;3.65;;
30307;SDS011;17114;52.314;8.910;2023-09-19T06:57:47;16.95;;;2.78;;
30307;SDS011;17114;52.314;8.910;2023-09-19T07:00:14;16.88;;;3.38;;
30307;SDS011;17114;52.314;8.910;2023-09-19T07:02:42;17.05;;;2.67;;
30307;SDS011;17114;52.314;8.910;2023-09-19T07:05:09;12.25;;;3.22;;
30307;SDS011;17114;52.314;8.910;2023-09-19T07:07:36;17.38;;;3.53;;
30307;SDS011;17114;52.314;8.910;2023-09-19T07:10:03;13.98;;;2.92;;
30307;SDS011;17114;52.314;8.910;2023-09-19T07:12:37;17.38;;;3.38;;
30307;SDS011;17114;52.314;8.910;2023-09-19T07:15:04;9.70;;;2.80;;
30307;SDS011;17114;52.314;8.910;2023-09-19T07:17:32;18.38;;;3.42;;
30307;SDS011;17114;52.314;8.910;2023-09-19T07:19:59;12.93;;;2.78;;
30307;SDS011;17114;52.314;8.910;2023-09-19T07:22:26;10.02;;;2.60;;
30307;SDS011;17114;52.314;8.910;2023-09-19T07:24:53;13.77;;;3.08;;
30307;SDS011;17114;52.314;8.910;2023-09-19T07:27:21;11.32;;;2.72;;
30307;SDS011;17114;52.314;8.910;2023-09-19T07:29:47;10.02;;;2.85;;
30307;SDS011;17114;52.314;8.910;2023-09-19T07:32:18;10.50;;;3.03;;
30307;SDS011;17114;52.314;8.910;2023-09-19T07:34:45;12.30;;;3.15;;
30307;SDS011;17114;52.314;8.910;2023-09-19T07:37:12;14.18;;;2.80;;
30307;SDS011;17114;52.314;8.910;2023-09-19T07:39:42;14.80;;;2.83;;
30307;SDS011;17114;52.314;8.910;2023-09-19T07:42:11;12.18;;;2.80;;
30307;SDS011;17114;52.314;8.910;2023-09-19T07:44:44;16.70;;;3.05;;
30307;SDS011;17114;52.314;8.910;2023-09-19T07:47:16;10.75;;;3.05;;
30307;SDS011;17114;52.314;8.910;2023-09-19T07:49:46;12.38;;;2.85;;
30307;SDS011;17114;52.314;8.910;2023-09-19T07:52:14;10.27;;;3.10;;
30307;SDS011;17114;52.314;8.910;2023-09-19T07:54:42;13.38;;;2.35;;
30307;SDS011;17114;52.314;8.910;2023-09-19T07:57:10;12.20;;;3.00;;
30307;SDS011;17114;52.314;8.910;2023-09-19T07:59:37;15.73;;;3.72;;
30307;SDS011;17114;52.314;8.910;2023-09-19T08:02:05;14.18;;;3.08;;
30307;SDS011;17114;52.314;8.910;2023-09-19T08:04:34;10.90;;;3.05;;
30307;SDS011;17114;52.314;8.910;2023-09-19T08:07:01;11.35;;;2.67;;
30307;SDS011;17114;52.314;8.910;2023-09-19T08:09:30;11.18;;;2.80;;
30307;SDS011;17114;52.314;8.910;2023-09-19T08:11:59;8.25;;;2.08;;
30307;SDS011;17114;52.314;8.910;2023-09-19T08:14:29;10.57;;;2.97;;
30307;SDS011;17114;52.314;8.910;2023-09-19T08:16:56;12.05;;;2.45;;
30307;SDS011;17114;52.314;8.910;2023-09-19T08:19:25;11.93;;;2.97;;
30307;SDS011;17114;52.314;8.910;2023-09-19T08:21:58;10.15;;;2.67;;
30307;SDS011;17114;52.314;8.910;2023-09-19T08:24:28;10.32;;;3.03;;
30307;SDS011;17114;52.314;8.910;2023-09-19T08:26:56;11.30;;;2.75;;
30307;SDS011;17114;52.314;8.910;2023-09-19T08:29:24;12.20;;;3.20;;
30307;SDS011;17114;52.314;8.910;2023-09-19T08:31:58;10.30;;;2.80;;
30307;SDS011;17114;52.314;8.910;2023-09-19T08:34:26;12.57;;;2.47;;
30307;SDS011;17114;52.314;8.910;2023-09-19T08:36:54;10.98;;;2.92;;
30307;SDS011;17114;52.314;8.910;2023-09-19T08:39:24;10.10;;;2.72;;
30307;SDS011;17114;52.314;8.910;2023-09-19T08:41:58;14.18;;;2.80;;
30307;SDS011;17114;52.314;8.910;2023-09-19T08:44:26;14.65;;;2.60;;
30307;SDS011;17114;52.314;8.910;2023-09-19T08:47:00;11.65;;;3.03;;
30307;SDS011;17114;52.314;8.910;2023-09-19T08:52:20;14.53;;;2.53;;
30307;SDS011;17114;52.314;8.910;2023-09-19T08:54:56;9.88;;;3.47;;
30307;SDS011;17114;52.314;8.910;2023-09-19T08:57:28;10.23;;;2.65;;
30307;SDS011;17114;52.314;8.910;2023-09-19T08:59:59;9.35;;;3.13;;
30307;SDS011;17114;52.314;8.910;2023-09-19T09:02:27;9.93;;;2.75;;
30307;SDS011;17114;52.314;8.910;2023-09-19T09:04:55;15.13;;;3.50;;
30307;SDS011;17114;52.314;8.910;2023-09-19T09:07:24;10.63;;;3.00;;
30307;SDS011;17114;52.314;8.910;2023-09-19T09:09:51;10.35;;;2.92;;
30307;SDS011;17114;52.314;8.910;2023-09-19T09:12:18;11.82;;;2.80;;
30307;SDS011;17114;52.314;8.910;2023-09-19T09:14:46;12.20;;;3.05;;
30307;SDS011;17114;52.314;8.910;2023-09-19T09:17:16;7.80;;;2.65;;
30307;SDS011;17114;52.314;8.910;2023-09-19T09:19:47;12.15;;;3.03;;
30307;SDS011;17114;52.314;8.910;2023-09-19T09:22:14;11.77;;;2.83;;
30307;SDS011;17114;52.314;8.910;2023-09-19T09:24:55;11.60;;;2.88;;
30307;SDS011;17114;52.314;8.910;2023-09-19T09:27:24;12.15;;;3.25;;
30307;SDS011;17114;52.314;8.910;2023-09-19T09:29:52;9.13;;;3.05;;
30307;SDS011;17114;52.314;8.910;2023-09-19T09:34:56;12.65;;;3.03;;
30307;SDS011;17114;52.314;8.910;2023-09-19T09:37:28;10.68;;;2.83;;
30307;SDS011;17114;52.314;8.910;2023-09-19T09:40:01;10.98;;;3.20;;
30307;SDS011;17114;52.314;8.910;2023-09-19T09:42:55;9.75;;;2.83;;
30307;SDS011;17114;52.314;8.910;2023-09-19T09:45:25;10.40;;;3.00;;
30307;SDS011;17114;52.314;8.910;2023-09-19T09:48:03;13.02;;;2.83;;
30307;SDS011;17114;52.314;8.910;2023-09-19T09:50:47;16.60;;;3.25;;
30307;SDS011;17114;52.314;8.910;2023-09-19T09:53:24;11.17;;;3.50;;
30307;SDS011;17114;52.314;8.910;2023-09-19T09:58:36;17.27;;;3.10;;
30307;SDS011;17114;52.314;8.910;2023-09-19T10:01:06;10.02;;;3.40;;
30307;SDS011;17114;52.314;8.910;2023-09-19T10:03:40;13.70;;;3.47;;
30307;SDS011;17114;52.314;8.910;2023-09-19T10:06:11;8.90;;;3.00;;
30307;SDS011;17114;52.314;8.910;2023-09-19T10:09:01;14.68;;;3.58;;
30307;SDS011;17114;52.314;8.910;2023-09-19T10:11:47;13.52;;;3.67;;
30307;SDS011;17114;52.314;8.910;2023-09-19T10:14:24;12.93;;;3.70;;
30307;SDS011;17114;52.314;8.910;2023-09-19T10:16:59;15.30;;;3.72;;
30307;SDS011;17114;52.314;8.910;2023-09-19T10:19:33;9.85;;;3.58;;
30307;SDS011;17114;52.314;8.910;2023-09-19T10:22:04;14.32;;;3.95;;
30307;SDS011;17114;52.314;8.910;2023-09-19T10:24:35;13.00;;;3.83;;
30307;SDS011;17114;52.314;8.910;2023-09-19T10:27:17;8.95;;;2.95;;
30307;SDS011;17114;52.314;8.910;2023-09-19T10:29:46;14.48;;;3.42;;
30307;SDS011;17114;52.314;8.910;2023-09-19T10:32:20;12.20;;;2.72;;
30307;SDS011;17114;52.314;8.910;2023-09-19T10:34:50;13.10;;;3.33;;
30307;SDS011;17114;52.314;8.910;2023-09-19T10:37:21;12.85;;;3.17;;
30307;SDS011;17114;52.314;8.910;2023-09-19T10:39:52;12.38;;;3.72;;
30307;SDS011;17114;52.314;8.910;2023-09-19T10:42:22;11.57;;;2.90;;
30307;SDS011;17114;52.314;8.910;2023-09-19T10:44:54;15.95;;;3.17;;
30307;SDS011;17114;52.314;8.910;2023-09-19T10:47:26;14.88;;;3.63;;
30307;SDS011;17114;52.314;8.910;2023-09-19T10:49:53;10.52;;;2.72;;
30307;SDS011;17114;52.314;8.910;2023-09-19T10:52:22;9.88;;;3.15;;
30307;SDS011;17114;52.314;8.910;2023-09-19T10:54:52;11.70;;;2.92;;
30307;SDS011;17114;52.314;8.910;2023-09-19T10:57:23;17.35;;;3.20;;
30307;SDS011;17114;52.314;8.910;2023-09-19T11:00:00;13.20;;;2.90;;
30307;SDS011;17114;52.314;8.910;2023-09-19T11:05:59;12.18;;;3.22;;
30307;SDS011;17114;52.314;8.910;2023-09-19T11:09:00;13.07;;;3.30;;
30307;SDS011;17114;52.314;8.910;2023-09-19T11:11:44;12.00;;;3.05;;
30307;SDS011;17114;52.314;8.910;2023-09-19T11:30:42;10.75;;;3.03;;
30307;SDS011;17114;52.314;8.910;2023-09-19T11:33:15;10.27;;;2.90;;
30307;SDS011;17114;52.314;8.910;2023-09-19T11:36:09;9.35;;;3.08;;
30307;SDS011;17114;52.314;8.910;2023-09-19T11:48:50;9.30;;;2.90;;
30307;SDS011;17114;52.314;8.910;2023-09-19T11:51:18;15.02;;;3.65;;
30307;SDS011;17114;52.314;8.910;2023-09-19T11:53:50;12.93;;;3.45;;
30307;SDS011;17114;52.314;8.910;2023-09-19T11:56:18;9.93;;;3.00;;
30307;SDS011;17114;52.314;8.910;2023-09-19T11:58:51;11.70;;;3.00;;
30307;SDS011;17114;52.314;8.910;2023-09-19T12:01:26;12.48;;;3.33;;
30307;SDS011;17114;52.314;8.910;2023-09-19T12:04:00;13.65;;;2.72;;
30307;SDS011;17114;52.314;8.910;2023-09-19T12:06:28;11.93;;;3.45;;
30307;SDS011;17114;52.314;8.910;2023-09-19T12:08:56;12.73;;;3.08;;
30307;SDS011;17114;52.314;8.910;2023-09-19T12:11:30;10.57;;;3.00;;
30307;SDS011;17114;52.314;8.910;2023-09-19T12:14:02;10.18;;;3.05;;
30307;SDS011;17114;52.314;8.910;2023-09-19T12:16:30;12.43;;;2.75;;
30307;SDS011;17114;52.314;8.910;2023-09-19T12:18:59;12.68;;;2.97;;
30307;SDS011;17114;52.314;8.910;2023-09-19T12:22:00;11.93;;;3.08;;
30307;SDS011;17114;52.314;8.910;2023-09-19T12:24:32;15.70;;;3.55;;
30307;SDS011;17114;52.314;8.910;2023-09-19T12:27:01;11.25;;;2.80;;
30307;SDS011;17114;52.314;8.910;2023-09-19T12:32:09;12.10;;;3.05;;
30307;SDS011;17114;52.314;8.910;2023-09-19T12:34:36;11.80;;;2.70;;
30307;SDS011;17114;52.314;8.910;2023-09-19T12:37:09;12.38;;;2.53;;
30307;SDS011;17114;52.314;8.910;2023-09-19T12:39:38;12.40;;;2.65;;
30307;SDS011;17114;52.314;8.910;2023-09-19T12:42:10;14.52;;;3.25;;
30307;SDS011;17114;52.314;8.910;2023-09-19T12:44:44;13.55;;;3.03;;
30307;SDS011;17114;52.314;8.910;2023-09-19T12:47:17;10.98;;;3.08;;
30307;SDS011;17114;52.314;8.910;2023-09-19T12:52:41;10.27;;;2.72;;
30307;SDS011;17114;52.314;8.910;2023-09-19T13:00:42;10.88;;;3.13;;
30307;SDS011;17114;52.314;8.910;2023-09-19T13:05:55;10.50;;;3.17;;
30307;SDS011;17114;52.314;8.910;2023-09-19T13:11:02;11.52;;;2.67;;
30307;SDS011;17114;52.314;8.910;2023-09-19T13:16:08;9.85;;;2.53;;
30307;SDS011;17114;52.314;8.910;2023-09-19T13:18:43;13.05;;;3.28;;
30307;SDS011;17114;52.314;8.910;2023-09-19T13:21:14;12.00;;;2.88;;
30307;SDS011;17114;52.314;8.910;2023-09-19T13:23:52;7.90;;;2.75;;
30307;SDS011;17114;52.314;8.910;2023-09-19T13:26:25;10.43;;;2.92;;
30307;SDS011;17114;52.314;8.910;2023-09-19T13:28:54;9.60;;;2.75;;
30307;SDS011;17114;52.314;8.910;2023-09-19T13:31:21;15.57;;;3.25;;
30307;SDS011;17114;52.314;8.910;2023-09-19T13:33:50;13.23;;;2.88;;
30307;SDS011;17114;52.314;8.910;2023-09-19T13:36:18;13.18;;;3.33;;
30307;SDS011;17114;52.314;8.910;2023-09-19T13:38:45;11.85;;;3.28;;
30307;SDS011;17114;52.314;8.910;2023-09-19T13:41:15;11.57;;;2.85;;
30307;SDS011;17114;52.314;8.910;2023-09-19T13:43:42;14.65;;;2.88;;
30307;SDS011;17114;52.314;8.910;2023-09-19T13:46:15;10.63;;;2.65;;
30307;SDS011;17114;52.314;8.910;2023-09-19T13:48:44;12.98;;;3.00;;
30307;SDS011;17114;52.314;8.910;2023-09-19T13:51:11;6.80;;;2.58;;
30307;SDS011;17114;52.314;8.910;2023-09-19T13:53:37;11.43;;;2.75;;
30307;SDS011;17114;52.314;8.910;2023-09-19T13:56:05;6.63;;;2.47;;
30307;SDS011;17114;52.314;8.910;2023-09-19T13:58:33;10.35;;;2.58;;
30307;SDS011;17114;52.314;8.910;2023-09-19T14:01:00;7.30;;;2.50;;
30307;SDS011;17114;52.314;8.910;2023-09-19T14:03:27;9.10;;;2.22;;
30307;SDS011;17114;52.314;8.910;2023-09-19T14:05:54;8.90;;;2.38;;
30307;SDS011;17114;52.314;8.910;2023-09-19T14:08:21;10.40;;;2.35;;
30307;SDS011;17114;52.314;8.910;2023-09-19T14:10:49;12.00;;;2.53;;
30307;SDS011;17114;52.314;8.910;2023-09-19T14:13:16;7.22;;;2.30;;
30307;SDS011;17114;52.314;8.910;2023-09-19T14:15:43;8.82;;;2.47;;
30307;SDS011;17114;52.314;8.910;2023-09-19T14:18:10;10.68;;;2.25;;
30307;SDS011;17114;52.314;8.910;2023-09-19T14:20:40;11.43;;;2.00;;
30307;SDS011;17114;52.314;8.910;2023-09-19T14:23:07;9.55;;;2.42;;
30307;SDS011;17114;52.314;8.910;2023-09-19T14:25:35;11.02;;;2.10;;
30307;SDS011;17114;52.314;8.910;2023-09-19T14:28:02;8.40;;;2.13;;
30307;SDS011;17114;52.314;8.910;2023-09-19T14:30:29;9.27;;;2.47;;
30307;SDS011;17114;52.314;8.910;2023-09-19T14:32:56;7.75;;;2.35;;
30307;SDS011;17114;52.314;8.910;2023-09-19T14:35:24;9.70;;;2.40;;
30307;SDS011;17114;52.314;8.910;2023-09-19T14:37:51;6.65;;;2.22;;
30307;SDS011;17114;52.314;8.910;2023-09-19T14:40:19;8.15;;;2.25;;
30307;SDS011;17114;52.314;8.910;2023-09-19T14:42:46;7.03;;;2.17;;
30307;SDS011;17114;52.314;8.910;2023-09-19T14:45:15;10.45;;;2.42;;
30307;SDS011;17114;52.314;8.910;2023-09-19T14:47:45;10.02;;;2.30;;
30307;SDS011;17114;52.314;8.910;2023-09-19T14:50:13;12.48;;;2.53;;
30307;SDS011;17114;52.314;8.910;2023-09-19T14:52:41;11.68;;;2.08;;
30307;SDS011;17114;52.314;8.910;2023-09-19T14:55:09;7.10;;;2.33;;
30307;SDS011;17114;52.314;8.910;2023-09-19T14:57:41;10.63;;;2.50;;
30307;SDS011;17114;52.314;8.910;2023-09-19T15:00:11;7.65;;;2.22;;
30307;SDS011;17114;52.314;8.910;2023-09-19T15:02:39;9.35;;;2.47;;
30307;SDS011;17114;52.314;8.910;2023-09-19T15:05:11;8.45;;;2.40;;
30307;SDS011;17114;52.314;8.910;2023-09-19T15:07:38;5.57;;;2.22;;
30307;SDS011;17114;52.314;8.910;2023-09-19T15:10:06;6.68;;;2.00;;
30307;SDS011;17114;52.314;8.910;2023-09-19T15:12:36;9.30;;;3.05;;
30307;SDS011;17114;52.314;8.910;2023-09-19T15:15:04;8.23;;;1.95;;
30307;SDS011;17114;52.314;8.910;2023-09-19T15:17:35;11.98;;;2.92;;
30307;SDS011;17114;52.314;8.910;2023-09-19T15:20:03;9.77;;;2.20;;
30307;SDS011;17114;52.314;8.910;2023-09-19T15:22:33;10.23;;;2.90;;
30307;SDS011;17114;52.314;8.910;2023-09-19T15:25:03;7.72;;;2.08;;
30307;SDS011;17114;52.314;8.910;2023-09-19T15:27:30;6.13;;;2.10;;
30307;SDS011;17114;52.314;8.910;2023-09-19T15:29:57;9.75;;;2.85;;
30307;SDS011;17114;52.314;8.910;2023-09-19T15:32:25;11.60;;;2.50;;
30307;SDS011;17114;52.314;8.910;2023-09-19T15:34:52;8.13;;;2.25;;
30307;SDS011;17114;52.314;8.910;2023-09-19T15:37:21;10.23;;;2.05;;
30307;SDS011;17114;52.314;8.910;2023-09-19T15:39:49;9.23;;;2.40;;
30307;SDS011;17114;52.314;8.910;2023-09-19T15:42:16;6.05;;;1.98;;
30307;SDS011;17114;52.314;8.910;2023-09-19T15:44:42;8.98;;;2.55;;
30307;SDS011;17114;52.314;8.910;2023-09-19T15:47:10;7.10;;;1.90;;
30307;SDS011;17114;52.314;8.910;2023-09-19T15:49:37;8.38;;;2.05;;
30307;SDS011;17114;52.314;8.910;2023-09-19T15:52:04;7.25;;;2.20;;
30307;SDS011;17114;52.314;8.910;2023-09-19T15:54:34;12.75;;;3.25;;
30307;SDS011;17114;52.314;8.910;2023-09-19T15:57:01;7.00;;;2.28;;
30307;SDS011;17114;52.314;8.910;2023-09-19T15:59:30;7.95;;;2.42;;
30307;SDS011;17114;52.314;8.910;2023-09-19T16:01:56;6.50;;;2.22;;
30307;SDS011;17114;52.314;8.910;2023-09-19T16:04:24;5.18;;;2.03;;
30307;SDS011;17114;52.314;8.910;2023-09-19T16:06:51;7.28;;;2.22;;
30307;SDS011;17114;52.314;8.910;2023-09-19T16:09:18;7.70;;;2.10;;